Arborfield, Canada
Current Conditions -  °F | °C
As of 12:17 AM on Wednesday 28 Jan 2015 (Local Time) from CYBU Reporting Station
Light Snow Light Snow  
Wind Chill: -4°   Ceiling: 1000
Heat Index: 12°   Visibility: 0.75mi
Dew Point: 10°   Wind: 16mph
Humidity: 92%   Direction: 30°NNE
Pressure: 30.02"   Gusts: NA
Location:  53.12°N, 103.65°W
Report Text: CYBU 280617Z AUTO 03014KT 3/4SM -SN VV010 M11/M12 A3002 RMK SLP192
Loading
Personal Weather Stations






























Interactive Weather Map New forecast layout! Learn more

10-Day Weather Forecast

Advertisements
Track Severe Weather on mobile